createdAt,value
2022-09-10T00:01:27.465Z,0.80
2022-09-10T00:03:56.559Z,1.05
2022-09-10T00:06:26.029Z,1.20
2022-09-10T00:08:57.284Z,1.05
2022-09-10T00:11:26.695Z,1.10
2022-09-10T00:13:55.037Z,1.10
2022-09-10T00:16:23.399Z,1.00
2022-09-10T00:18:51.597Z,1.25
2022-09-10T00:21:21.479Z,1.38
2022-09-10T00:23:50.424Z,1.10
2022-09-10T00:26:23.326Z,1.20
2022-09-10T00:28:52.102Z,1.33
2022-09-10T00:31:22.638Z,2.72
2022-09-10T00:33:51.050Z,1.63
2022-09-10T00:36:22.592Z,1.80
2022-09-10T00:38:51.784Z,1.63
2022-09-10T00:41:22.944Z,1.98
2022-09-10T00:43:53.924Z,1.63
2022-09-10T00:46:29.931Z,1.80
2022-09-10T00:49:01.940Z,2.00
2022-09-10T00:51:35.837Z,1.70
2022-09-10T00:54:05.233Z,2.15
2022-09-10T00:56:35.582Z,1.70
2022-09-10T00:59:05.400Z,1.70
2022-09-10T01:01:34.581Z,1.67
2022-09-10T01:04:04.648Z,1.75
2022-09-10T01:06:33.364Z,2.00
2022-09-10T01:09:03.071Z,1.80
2022-09-10T01:11:46.716Z,2.60
2022-09-10T01:14:27.857Z,2.10
2022-09-10T01:17:04.499Z,2.30
2022-09-10T01:20:04.351Z,1.90
2022-09-10T01:22:42.351Z,2.42
2022-09-10T01:25:22.619Z,2.13
2022-09-10T01:27:55.182Z,2.10
2022-09-10T01:30:25.868Z,2.72
2022-09-10T01:33:06.511Z,3.03
2022-09-10T01:35:44.563Z,2.80
2022-09-10T01:38:16.387Z,3.28
2022-09-10T01:40:46.391Z,3.13
2022-09-10T01:43:19.835Z,3.17
2022-09-10T01:46:01.646Z,3.95
2022-09-10T01:48:59.812Z,3.53
2022-09-10T01:51:36.854Z,3.05
2022-09-10T01:54:37.121Z,3.97
2022-09-10T01:57:15.182Z,3.53
2022-09-10T01:59:54.327Z,3.75
2022-09-10T02:02:25.871Z,3.78
2022-09-10T02:04:56.104Z,4.28
2022-09-10T02:07:27.625Z,4.20
2022-09-10T02:09:57.327Z,4.10
2022-09-10T02:12:27.390Z,4.13
2022-09-10T02:15:11.532Z,4.13
2022-09-10T02:18:02.130Z,3.38
2022-09-10T02:20:31.165Z,3.28
2022-09-10T02:23:00.902Z,3.85
2022-09-10T02:25:34.374Z,3.55
2022-09-10T02:28:04.617Z,3.50
2022-09-10T02:30:35.218Z,3.30
2022-09-10T02:33:03.529Z,3.00
2022-09-10T02:35:31.960Z,2.80
2022-09-10T02:38:00.022Z,2.67
2022-09-10T02:40:31.724Z,2.70
2022-09-10T02:42:59.821Z,2.13
2022-09-10T02:45:29.762Z,2.70
2022-09-10T02:47:59.152Z,2.67
2022-09-10T02:50:27.702Z,2.70
2022-09-10T02:52:55.779Z,2.45
2022-09-10T02:55:23.805Z,3.05
2022-09-10T02:57:52.547Z,2.72
2022-09-10T03:00:21.188Z,3.20
2022-09-10T03:02:49.469Z,3.00
2022-09-10T03:05:19.168Z,2.90
2022-09-10T03:07:47.891Z,2.92
2022-09-10T03:10:16.689Z,2.97
2022-09-10T03:12:47.936Z,2.90
2022-09-10T03:15:16.081Z,3.08
2022-09-10T03:17:44.900Z,4.10
2022-09-10T03:20:12.925Z,3.28
2022-09-10T03:22:42.264Z,4.38
2022-09-10T03:25:12.366Z,4.38
2022-09-10T03:27:40.974Z,4.68
2022-09-10T03:30:10.806Z,4.90
2022-09-10T03:32:38.845Z,4.72
2022-09-10T03:35:10.109Z,4.80
2022-09-10T03:37:39.347Z,5.28
2022-09-10T03:40:10.805Z,5.68
2022-09-10T03:42:39.074Z,5.50
2022-09-10T03:45:08.411Z,5.75
2022-09-10T03:47:37.585Z,5.50
2022-09-10T03:50:06.631Z,4.30
2022-09-10T03:52:35.703Z,3.58
2022-09-10T03:55:04.112Z,3.55
2022-09-10T03:57:33.477Z,3.00
2022-09-10T04:00:01.501Z,2.08
2022-09-10T04:02:30.764Z,2.20
2022-09-10T04:04:58.823Z,2.47
2022-09-10T04:07:26.801Z,1.88
2022-09-10T04:09:55.118Z,1.85
2022-09-10T04:12:23.911Z,2.03
2022-09-10T04:14:53.412Z,1.70
2022-09-10T04:17:21.747Z,1.63
2022-09-10T04:19:51.094Z,1.20
2022-09-10T04:22:19.114Z,1.40
2022-09-10T04:24:47.358Z,1.60
2022-09-10T04:27:15.913Z,1.25
2022-09-10T04:29:44.114Z,1.48
2022-09-10T04:32:13.461Z,1.85
2022-09-10T04:34:42.347Z,1.30
2022-09-10T04:37:10.361Z,1.63
2022-09-10T04:39:38.563Z,1.38
2022-09-10T04:42:08.394Z,1.10
2022-09-10T04:44:36.971Z,1.50
2022-09-10T04:47:05.106Z,1.45
2022-09-10T04:49:35.756Z,1.30
2022-09-10T04:52:03.916Z,1.50
2022-09-10T04:54:33.551Z,1.40
2022-09-10T04:57:01.777Z,1.33
2022-09-10T04:59:30.382Z,1.40
2022-09-10T05:01:58.711Z,1.40
2022-09-10T05:04:27.286Z,1.70
2022-09-10T05:06:59.451Z,1.40
2022-09-10T05:09:31.199Z,1.98
2022-09-10T05:12:01.251Z,1.90
2022-09-10T05:14:30.345Z,1.60
2022-09-10T05:16:58.617Z,1.73
2022-09-10T05:19:27.777Z,1.97
2022-09-10T05:22:02.013Z,1.70
2022-09-10T05:24:31.894Z,1.75
2022-09-10T05:27:00.852Z,1.40
2022-09-10T05:29:28.877Z,1.67
2022-09-10T05:31:56.966Z,1.88
2022-09-10T05:34:26.235Z,1.35
2022-09-10T05:36:54.803Z,2.13
2022-09-10T05:39:25.458Z,1.83
2022-09-10T05:41:55.413Z,1.90
2022-09-10T05:44:24.695Z,2.30
2022-09-10T05:46:53.135Z,1.80
2022-09-10T05:49:22.313Z,1.83
2022-09-10T05:51:50.371Z,2.08
2022-09-10T05:54:18.460Z,1.95
2022-09-10T05:56:48.712Z,1.92
2022-09-10T05:59:16.823Z,1.90
2022-09-10T06:01:51.334Z,1.85
2022-09-10T06:04:20.944Z,1.40
2022-09-10T06:06:49.695Z,1.67
2022-09-10T06:09:19.158Z,1.40
2022-09-10T06:11:59.290Z,1.65
2022-09-10T06:14:27.544Z,1.50
2022-09-10T06:16:55.670Z,1.63
2022-09-10T06:19:25.900Z,1.30
2022-09-10T06:21:54.891Z,1.40
2022-09-10T06:24:24.338Z,1.40
2022-09-10T06:26:55.740Z,1.15
2022-09-10T06:29:26.686Z,1.10
2022-09-10T06:31:55.372Z,1.10
2022-09-10T06:34:23.430Z,1.00
2022-09-10T06:36:53.491Z,0.70
2022-09-10T06:39:21.839Z,0.98
2022-09-10T06:41:53.168Z,0.93
2022-09-10T06:44:52.046Z,0.90
2022-09-10T06:50:54.454Z,0.70
2022-09-10T06:53:27.103Z,0.90
2022-09-10T06:55:56.314Z,1.00
2022-09-10T06:58:25.101Z,1.10
2022-09-10T07:00:56.029Z,0.90
2022-09-10T07:03:25.151Z,1.58
2022-09-10T07:05:53.383Z,1.40
2022-09-10T07:08:23.055Z,1.30
2022-09-10T07:11:01.314Z,1.40
2022-09-10T07:13:30.487Z,1.60
2022-09-10T07:15:59.990Z,1.70
2022-09-10T07:18:28.779Z,1.50
2022-09-10T07:21:08.047Z,2.28
2022-09-10T07:23:36.818Z,1.23
2022-09-10T07:26:08.025Z,1.40
2022-09-10T07:28:43.448Z,1.23
2022-09-10T07:31:17.721Z,1.60
2022-09-10T07:33:50.479Z,1.63
2022-09-10T07:36:19.857Z,1.40
2022-09-10T07:38:54.913Z,1.23
2022-09-10T07:41:28.359Z,1.13
2022-09-10T07:43:58.266Z,1.20
2022-09-10T07:46:34.055Z,1.30
2022-09-10T07:49:05.228Z,1.00
2022-09-10T07:51:36.241Z,1.05
2022-09-10T07:54:06.129Z,1.00
2022-09-10T07:56:40.890Z,1.30
2022-09-10T07:59:13.111Z,0.80
2022-09-10T08:01:48.394Z,0.98
2022-09-10T08:04:18.765Z,0.90
2022-09-10T08:06:47.229Z,0.80
2022-09-10T08:09:16.255Z,0.90
2022-09-10T08:11:51.605Z,0.73
2022-09-10T08:14:22.352Z,0.95
2022-09-10T08:16:54.749Z,0.82
2022-09-10T08:19:22.982Z,1.10
2022-09-10T08:21:52.716Z,1.02
2022-09-10T08:24:28.482Z,1.27
2022-09-10T08:26:56.823Z,0.90
2022-09-10T08:29:24.853Z,1.50
2022-09-10T08:31:54.222Z,1.10
2022-09-10T08:34:29.477Z,1.20
2022-09-10T08:37:05.421Z,1.20
2022-09-10T08:39:35.959Z,1.35
2022-09-10T08:42:07.190Z,1.30
2022-09-10T08:44:49.761Z,1.17
2022-09-10T08:47:29.914Z,1.88
2022-09-10T08:50:06.640Z,1.05
2022-09-10T08:52:40.583Z,1.08
2022-09-10T08:55:24.474Z,1.05
2022-09-10T08:57:56.191Z,1.00
2022-09-10T09:00:27.083Z,1.70
2022-09-10T09:03:02.328Z,1.05
2022-09-10T09:05:41.529Z,1.55
2022-09-10T09:08:14.625Z,1.73
2022-09-10T09:10:49.142Z,1.42
2022-09-10T09:13:35.073Z,1.13
2022-09-10T09:16:23.981Z,0.95
2022-09-10T09:19:06.675Z,1.20
2022-09-10T09:21:49.464Z,1.25
2022-09-10T09:24:24.010Z,1.20
2022-09-10T09:27:01.054Z,1.00
2022-09-10T09:29:34.051Z,1.02
2022-09-10T09:32:06.221Z,1.38
2022-09-10T09:34:40.819Z,1.10
2022-09-10T09:37:18.294Z,1.20
2022-09-10T09:39:53.679Z,1.02
2022-09-10T09:42:29.273Z,0.80
2022-09-10T09:45:03.959Z,0.93
2022-09-10T09:47:32.338Z,0.98
2022-09-10T09:50:01.859Z,1.20
2022-09-10T09:52:32.176Z,1.20
2022-09-10T09:55:15.404Z,1.10
2022-09-10T09:57:44.139Z,1.13
2022-09-10T10:00:36.242Z,0.95
2022-09-10T10:03:12.863Z,0.85
2022-09-10T10:05:42.388Z,0.90
2022-09-10T10:08:30.761Z,1.10
2022-09-10T10:10:59.450Z,1.23
2022-09-10T10:13:37.507Z,1.10
2022-09-10T10:16:16.158Z,1.02
2022-09-10T10:18:45.157Z,1.10
2022-09-10T10:21:17.498Z,1.50
2022-09-10T10:23:45.994Z,1.20
2022-09-10T10:26:35.982Z,1.08
2022-09-10T10:29:07.657Z,1.40
2022-09-10T10:31:40.141Z,1.33
2022-09-10T10:34:24.264Z,1.23
2022-09-10T10:37:00.726Z,1.08
2022-09-10T10:39:38.651Z,1.30
2022-09-10T10:42:14.116Z,1.10
2022-09-10T10:44:58.554Z,1.20
2022-09-10T10:47:40.078Z,1.23
2022-09-10T10:50:21.599Z,1.48
2022-09-10T10:53:09.480Z,0.90
2022-09-10T10:55:41.656Z,1.65
2022-09-10T10:58:28.884Z,1.70
2022-09-10T11:01:02.460Z,1.83
2022-09-10T11:03:36.442Z,1.55
2022-09-10T11:06:09.471Z,1.10
2022-09-10T11:08:43.924Z,1.50
2022-09-10T11:11:18.198Z,1.30
2022-09-10T11:13:53.176Z,0.85
2022-09-10T11:16:26.073Z,1.00
2022-09-10T11:18:58.017Z,1.58
2022-09-10T11:21:31.215Z,0.88
2022-09-10T11:24:05.908Z,0.90
2022-09-10T11:26:39.203Z,1.10
2022-09-10T11:29:22.027Z,1.10
2022-09-10T11:31:59.153Z,0.90
2022-09-10T11:34:34.536Z,1.10
2022-09-10T11:37:11.767Z,0.90
2022-09-10T11:39:46.476Z,0.90
2022-09-10T11:42:20.916Z,1.27
2022-09-10T11:44:58.752Z,1.00
2022-09-10T11:47:32.144Z,0.95
2022-09-10T11:50:07.314Z,0.75
2022-09-10T11:52:35.979Z,1.00
2022-09-10T11:55:08.595Z,0.82
2022-09-10T11:57:47.734Z,1.10
2022-09-10T12:00:17.957Z,0.90
2022-09-10T12:03:21.369Z,0.98
2022-09-10T12:06:00.494Z,0.90
2022-09-10T12:08:56.905Z,1.30
2022-09-10T12:11:35.491Z,0.63
2022-09-10T12:14:07.604Z,0.70
2022-09-10T12:16:42.568Z,1.27
2022-09-10T12:19:23.670Z,0.60
2022-09-10T12:21:55.450Z,0.70
2022-09-10T12:24:29.636Z,0.63
2022-09-10T12:27:00.234Z,0.70
2022-09-10T12:29:33.089Z,1.38
2022-09-10T12:32:37.860Z,0.70
2022-09-10T12:35:45.432Z,1.10
2022-09-10T12:38:55.113Z,0.90
2022-09-10T12:42:02.678Z,0.90
2022-09-10T12:44:46.615Z,0.80
2022-09-10T12:47:44.882Z,0.80
2022-09-10T12:50:40.259Z,0.80
2022-09-10T12:53:51.351Z,1.10
2022-09-10T12:56:34.709Z,0.75
2022-09-10T12:59:20.173Z,0.82
2022-09-10T13:01:51.342Z,0.77
2022-09-10T13:04:28.529Z,0.73
2022-09-10T13:06:59.003Z,0.70
2022-09-10T13:09:30.880Z,0.80
2022-09-10T13:12:04.435Z,0.70
2022-09-10T13:14:38.153Z,0.80
2022-09-10T13:17:07.058Z,0.70
2022-09-10T13:19:52.115Z,0.80
2022-09-10T13:22:49.014Z,0.80
2022-09-10T13:25:40.039Z,0.73
2022-09-10T13:28:46.350Z,0.80
2022-09-10T13:31:21.637Z,0.70
2022-09-10T13:34:17.929Z,1.00
2022-09-10T13:36:57.631Z,1.30
2022-09-10T13:39:42.790Z,0.82
2022-09-10T13:42:46.923Z,0.90
2022-09-10T13:45:24.186Z,0.70
2022-09-10T13:48:00.999Z,0.63
2022-09-10T13:50:35.777Z,0.73
2022-09-10T13:53:10.689Z,0.77
2022-09-10T13:55:39.474Z,0.70
2022-09-10T13:58:14.894Z,0.80
2022-09-10T14:00:51.137Z,0.68
2022-09-10T14:03:25.106Z,0.75
2022-09-10T14:05:58.284Z,0.60
2022-09-10T14:08:30.346Z,0.80
2022-09-10T14:11:01.546Z,0.70
2022-09-10T14:13:36.810Z,0.60
2022-09-10T14:16:08.509Z,0.70
2022-09-10T14:18:44.075Z,0.80
2022-09-10T14:21:14.095Z,0.80
2022-09-10T14:23:45.747Z,0.70
2022-09-10T14:26:23.325Z,0.65
2022-09-10T14:28:54.242Z,0.77
2022-09-10T14:31:38.257Z,0.63
2022-09-10T14:34:36.078Z,0.80
2022-09-10T14:37:25.405Z,0.80
2022-09-10T14:39:53.542Z,0.70
2022-09-10T14:42:27.403Z,0.80
2022-09-10T14:44:55.705Z,0.80
2022-09-10T14:47:35.797Z,0.80
2022-09-10T14:50:28.674Z,1.17
2022-09-10T14:52:56.737Z,0.80
2022-09-10T14:55:26.979Z,1.00
2022-09-10T14:57:56.051Z,0.70
2022-09-10T15:00:25.887Z,0.70
2022-09-10T15:02:57.249Z,0.80
2022-09-10T15:05:26.940Z,0.77
2022-09-10T15:07:54.993Z,1.00
2022-09-10T15:10:23.026Z,0.80
2022-09-10T15:12:53.139Z,0.93
2022-09-10T15:15:21.226Z,0.98
2022-09-10T15:17:49.222Z,0.77
2022-09-10T15:20:17.843Z,0.85
2022-09-10T15:22:47.220Z,1.00
2022-09-10T15:25:33.902Z,0.80
2022-09-10T15:28:04.350Z,0.95
2022-09-10T15:30:32.384Z,0.88
2022-09-10T15:33:00.540Z,0.70
2022-09-10T15:35:28.795Z,0.75
2022-09-10T15:37:58.405Z,0.85
2022-09-10T15:40:26.426Z,0.93
2022-09-10T15:42:54.430Z,0.70
2022-09-10T15:45:22.444Z,0.80
2022-09-10T15:47:50.950Z,0.90
2022-09-10T15:50:19.100Z,0.80
2022-09-10T15:52:47.679Z,0.90
2022-09-10T15:55:19.407Z,0.60
2022-09-10T15:57:49.877Z,0.80
2022-09-10T16:00:18.894Z,0.80
2022-09-10T16:02:51.860Z,0.80
2022-09-10T16:05:21.071Z,0.90
2022-09-10T16:07:49.527Z,0.80
2022-09-10T16:10:19.113Z,0.80
2022-09-10T16:12:47.157Z,0.63
2022-09-10T16:15:15.413Z,1.08
2022-09-10T16:17:43.440Z,0.80
2022-09-10T16:20:11.873Z,0.60
2022-09-10T16:22:39.909Z,0.88
2022-09-10T16:25:08.794Z,0.90
2022-09-10T16:27:42.577Z,0.70
2022-09-10T16:30:12.935Z,0.90
2022-09-10T16:32:40.945Z,0.90
2022-09-10T16:35:09.538Z,0.70
2022-09-10T16:37:37.546Z,0.73
2022-09-10T16:40:07.149Z,0.88
2022-09-10T16:42:35.158Z,0.85
2022-09-10T16:45:05.015Z,1.02
2022-09-10T16:47:33.615Z,1.10
2022-09-10T16:50:01.600Z,1.10
2022-09-10T16:52:30.860Z,1.00
2022-09-10T16:54:58.870Z,1.33
2022-09-10T16:57:26.862Z,0.93
2022-09-10T16:59:54.830Z,1.00
2022-09-10T17:02:24.493Z,1.20
2022-09-10T17:04:55.377Z,1.27
2022-09-10T17:07:23.430Z,1.00
2022-09-10T17:09:51.523Z,1.17
2022-09-10T17:12:19.638Z,0.90
2022-09-10T17:14:48.114Z,0.80
2022-09-10T17:17:16.167Z,5.35
2022-09-10T17:19:45.506Z,1.38
2022-09-10T17:22:13.581Z,1.08
2022-09-10T17:24:41.693Z,3.22
2022-09-10T17:27:11.389Z,1.45
2022-09-10T17:29:39.654Z,1.00
2022-09-10T17:32:07.795Z,1.30
2022-09-10T17:34:35.830Z,1.10
2022-09-10T17:37:05.211Z,1.33
2022-09-10T17:39:33.248Z,2.58
2022-09-10T17:42:01.239Z,1.23
2022-09-10T17:44:29.383Z,1.10
2022-09-10T17:46:57.328Z,1.23
2022-09-10T17:49:25.407Z,1.40
2022-09-10T17:51:53.418Z,1.10
2022-09-10T17:54:23.338Z,1.08
2022-09-10T17:56:51.406Z,0.90
2022-09-10T17:59:19.626Z,1.08
2022-09-10T18:01:47.803Z,1.20
2022-09-10T18:04:15.861Z,1.40
2022-09-10T18:06:46.915Z,1.00
2022-09-10T18:09:17.264Z,1.20
2022-09-10T18:11:47.415Z,1.63
2022-09-10T18:14:18.395Z,1.30
2022-09-10T18:16:47.146Z,0.98
2022-09-10T18:19:17.772Z,2.28
2022-09-10T18:21:47.577Z,1.20
2022-09-10T18:24:17.921Z,1.02
2022-09-10T18:26:48.977Z,1.02
2022-09-10T18:29:19.278Z,1.40
2022-09-10T18:31:49.127Z,1.13
2022-09-10T18:34:22.991Z,1.20
2022-09-10T18:36:54.234Z,1.00
2022-09-10T18:39:23.227Z,1.40
2022-09-10T18:41:53.112Z,1.38
2022-09-10T18:44:23.138Z,1.30
2022-09-10T18:46:52.894Z,1.25
2022-09-10T18:49:23.376Z,1.58
2022-09-10T18:51:52.134Z,1.42
2022-09-10T18:54:21.131Z,1.30
2022-09-10T18:56:50.168Z,1.30
2022-09-10T18:59:21.139Z,1.42
2022-09-10T19:01:50.109Z,1.52
2022-09-10T19:04:21.511Z,1.40
2022-09-10T19:06:50.239Z,1.20
2022-09-10T19:09:20.343Z,1.65
2022-09-10T19:11:50.521Z,1.58
2022-09-10T19:14:21.549Z,1.25
2022-09-10T19:16:51.080Z,1.48
2022-09-10T19:19:22.104Z,1.35
2022-09-10T19:21:52.137Z,1.08
2022-09-10T19:24:32.908Z,1.35
2022-09-10T19:27:09.417Z,1.35
2022-09-10T19:29:42.994Z,1.25
2022-09-10T19:32:11.255Z,1.27
2022-09-10T19:34:39.581Z,0.90
2022-09-10T19:37:07.712Z,0.93
2022-09-10T19:39:35.766Z,1.17
2022-09-10T19:42:04.149Z,0.93
2022-09-10T19:44:33.491Z,0.90
2022-09-10T19:47:03.970Z,0.98
2022-09-10T19:49:32.072Z,1.33
2022-09-10T19:52:00.101Z,1.10
2022-09-10T19:54:29.795Z,1.08
2022-09-10T19:56:57.929Z,0.93
2022-09-10T19:59:26.012Z,1.10
2022-09-10T20:01:54.326Z,1.30
2022-09-10T20:04:25.487Z,1.10
2022-09-10T20:06:53.528Z,1.20
2022-09-10T20:09:21.525Z,1.30
2022-09-10T20:11:49.542Z,1.13
2022-09-10T20:14:17.527Z,1.20
2022-09-10T20:16:46.516Z,1.20
2022-09-10T20:19:18.012Z,1.98
2022-09-10T20:21:47.818Z,0.90
2022-09-10T20:24:17.094Z,1.08
2022-09-10T20:26:46.492Z,0.90
2022-09-10T20:29:16.259Z,0.90
2022-09-10T20:31:46.196Z,0.90
2022-09-10T20:34:17.855Z,1.48
2022-09-10T20:36:48.060Z,1.48
2022-09-10T20:39:17.847Z,1.20
2022-09-10T20:41:46.832Z,0.90
2022-09-10T20:44:17.364Z,1.10
2022-09-10T20:46:46.233Z,1.10
2022-09-10T20:49:16.212Z,1.20
2022-09-10T20:51:45.427Z,1.00
2022-09-10T20:54:16.663Z,1.15
2022-09-10T20:56:45.018Z,1.13
2022-09-10T20:59:15.449Z,0.93
2022-09-10T21:01:45.821Z,1.20
2022-09-10T21:04:14.886Z,1.17
2022-09-10T21:06:42.962Z,1.00
2022-09-10T21:09:11.339Z,1.30
2022-09-10T21:11:40.753Z,1.10
2022-09-10T21:14:09.907Z,0.95
2022-09-10T21:16:39.589Z,1.13
2022-09-10T21:19:10.653Z,1.15
2022-09-10T21:21:40.365Z,1.15
2022-09-10T21:24:09.863Z,1.40
2022-09-10T21:26:40.783Z,1.53
2022-09-10T21:29:12.224Z,1.60
2022-09-10T21:31:41.012Z,1.38
2022-09-10T21:34:08.999Z,1.40
2022-09-10T21:36:39.222Z,1.55
2022-09-10T21:39:11.963Z,1.20
2022-09-10T21:41:43.975Z,1.20
2022-09-10T21:44:14.512Z,1.55
2022-09-10T21:46:43.105Z,1.42
2022-09-10T21:49:11.669Z,1.35
2022-09-10T21:51:40.205Z,1.55
2022-09-10T21:54:08.731Z,1.70
2022-09-10T21:56:36.692Z,1.55
2022-09-10T21:59:06.029Z,1.77
2022-09-10T22:01:34.074Z,2.13
2022-09-10T22:04:02.828Z,2.47
2022-09-10T22:06:32.720Z,2.50
2022-09-10T22:09:02.451Z,2.60
2022-09-10T22:11:34.082Z,3.30
2022-09-10T22:14:06.407Z,3.70
2022-09-10T22:16:36.124Z,3.58
2022-09-10T22:19:07.703Z,3.58
2022-09-10T22:21:38.281Z,4.30
2022-09-10T22:24:06.784Z,4.60
2022-09-10T22:26:36.027Z,4.00
2022-09-10T22:29:05.324Z,4.03
2022-09-10T22:31:35.528Z,3.97
2022-09-10T22:34:05.873Z,4.07
2022-09-10T22:36:35.938Z,4.20
2022-09-10T22:39:06.904Z,3.83
2022-09-10T22:41:37.194Z,4.37
2022-09-10T22:44:07.177Z,4.13
2022-09-10T22:46:37.362Z,3.90
2022-09-10T22:49:06.010Z,4.00
2022-09-10T22:51:36.065Z,4.50
2022-09-10T22:54:05.493Z,4.80
2022-09-10T22:56:35.711Z,4.97
2022-09-10T22:59:06.540Z,4.45
2022-09-10T23:01:36.629Z,4.05
2022-09-10T23:04:06.535Z,4.30
2022-09-10T23:06:36.218Z,3.78
2022-09-10T23:09:07.731Z,4.35
2022-09-10T23:11:38.348Z,4.97
2022-09-10T23:14:11.142Z,4.32
2022-09-10T23:16:40.767Z,3.97
2022-09-10T23:19:12.850Z,4.57
2022-09-10T23:21:42.978Z,4.77
2022-09-10T23:24:14.049Z,4.60
2022-09-10T23:26:42.671Z,4.50
2022-09-10T23:29:13.369Z,4.10
2022-09-10T23:31:41.827Z,4.68
2022-09-10T23:34:12.736Z,3.97
2022-09-10T23:36:42.599Z,4.20
2022-09-10T23:39:14.545Z,4.95
2022-09-10T23:41:42.967Z,4.90
2022-09-10T23:44:12.476Z,5.90
2022-09-10T23:46:41.087Z,5.13
2022-09-10T23:49:09.357Z,5.07
2022-09-10T23:51:38.067Z,4.90
2022-09-10T23:54:06.473Z,4.50
2022-09-10T23:56:35.204Z,4.70
2022-09-10T23:59:03.405Z,4.50
